Terminal Aerodrome Forecast
Issued by NWS

Home | Current Version | Previous Version | Text Only | Print | Product List | Glossary On
Versions: 1 2 3 4 5 6 7 8 9 10 11 12 13 14 15 16 17 18 19 20 21
000
FTUS45 KBOU 271153 AAA
TAFAPA
TAF AMD
KAPA 271153Z 2712/2812 31011KT P6SM FEW010 BKN040
     FM271400 34012G20KT P6SM VCSH SCT040 BKN050
     FM271700 36013KT P6SM VCSH SCT040 BKN060
      TEMPO 2717/2721 -SHRA BKN030
     FM272100 03012KT P6SM VCSH SCT030 BKN050
     FM280200 19007KT P6SM FEW060 BKN200=

USA.gov is the U.S. government's official web portal to all federal, state and local government web resources and services.